Time;durP1;ratioP1;P1;durP2;ratioP2;P2;SDS_P1;SDS_P2;PMS_P1;PMS_P2;Temp;Humidity;BMP_temperature;BMP_pressure;BME280_temperature;BME280_humidity;BME280_pressure;Samples;Min_cycle;Max_cycle;Signal;HPM_P1;HPM_P2
2022/09/24 03:02:40;;;;;;;8.98;6.55;;;;;;;12.56;48.78;100721.53;5147488;23;20122;-62
2022/09/24 03:05:07;;;;;;;11.55;6.57;;;;;;;12.59;48.60;100723.84;4980196;28;20055;-62
2022/09/24 03:07:33;;;;;;;18.45;8.43;;;;;;;12.54;49.01;100715.47;4984827;28;20389;-62
2022/09/24 03:10:00;;;;;;;10.25;6.35;;;;;;;12.46;49.13;100724.41;4991534;28;20050;-62
2022/09/24 03:12:26;;;;;;;11.57;7.28;;;;;;;12.48;49.04;100721.53;4991603;28;20054;-62
2022/09/24 03:14:53;;;;;;;10.52;6.47;;;;;;;12.50;48.77;100722.22;4992270;28;20080;-62
2022/09/24 03:17:19;;;;;;;11.65;6.55;;;;;;;12.48;49.01;100721.53;4992569;28;20046;-62
2022/09/24 03:19:45;;;;;;;9.77;6.78;;;;;;;12.46;49.40;100713.66;4985180;28;20053;-62
2022/09/24 03:22:12;;;;;;;11.48;6.47;;;;;;;12.50;49.52;100714.97;4972968;28;20058;-62
2022/09/24 03:24:38;;;;;;;13.75;6.65;;;;;;;12.54;49.12;100719.00;4972521;28;20054;-62
2022/09/24 03:27:05;;;;;;;9.30;6.68;;;;;;;12.56;49.19;100718.84;4973059;28;20046;-62
2022/09/24 03:32:16;;;;;;;11.45;7.28;;;;;;;12.44;49.46;100714.84;4973008;28;20050;-62
2022/09/24 03:34:42;;;;;;;9.50;6.53;;;;;;;12.43;49.61;100707.78;4973252;28;20046;-61
2022/09/24 03:37:09;;;;;;;15.07;6.75;;;;;;;12.30;49.64;100706.47;4982285;28;20120;-61
2022/09/24 03:39:35;;;;;;;9.35;6.50;;;;;;;12.30;49.68;100709.16;4992164;28;20409;-61
2022/09/24 03:42:02;;;;;;;17.40;6.70;;;;;;;12.32;49.89;100700.91;4992292;28;20061;-62
2022/09/24 03:44:28;;;;;;;12.15;6.90;;;;;;;12.26;49.74;100697.06;4991882;28;20050;-63
2022/09/24 03:46:55;;;;;;;9.98;6.75;;;;;;;12.33;49.75;100706.13;4992355;28;20069;-61
2022/09/24 03:49:22;;;;;;;11.60;7.20;;;;;;;12.37;49.63;100703.91;4992474;28;20042;-63
2022/09/24 03:51:49;;;;;;;12.90;6.63;;;;;;;12.36;50.00;100695.00;4991762;28;20042;-63
2022/09/24 03:54:15;;;;;;;11.55;6.57;;;;;;;12.25;50.00;100695.38;4991886;28;20397;-63
2022/09/24 03:56:42;;;;;;;14.05;6.63;;;;;;;12.35;49.95;100696.03;4991738;28;20045;-62
2022/09/24 03:59:11;;;;;;;9.25;6.30;;;;;;;12.35;49.95;100690.66;4991211;28;20417;-62
2022/09/24 04:01:38;;;;;;;16.13;6.93;;;;;;;12.27;50.08;100687.97;4991584;28;20046;-69
2022/09/24 04:04:04;;;;;;;15.25;6.68;;;;;;;12.14;50.60;100688.53;4989936;28;20042;-69
2022/09/24 04:06:31;;;;;;;11.95;7.25;;;;;;;12.00;51.01;100691.06;4990630;28;20481;-69
2022/09/24 04:08:59;;;;;;;12.27;6.43;;;;;;;12.13;50.71;100689.50;4989801;28;20050;-68
2022/09/24 04:11:25;;;;;;;11.75;6.05;;;;;;;12.13;50.69;100680.59;4990267;28;20405;-69
2022/09/24 04:13:52;;;;;;;13.18;6.28;;;;;;;12.25;50.46;100683.78;4990925;28;20057;-69
2022/09/24 04:16:18;;;;;;;10.80;6.68;;;;;;;12.20;50.89;100686.97;4990533;28;20057;-69
2022/09/24 04:18:46;;;;;;;10.23;6.45;;;;;;;12.10;51.02;100678.25;4990449;28;20054;-68
2022/09/24 04:21:13;;;;;;;12.25;6.47;;;;;;;12.17;50.94;100676.56;4990349;28;20058;-70
2022/09/24 04:23:39;;;;;;;8.57;5.82;;;;;;;12.30;50.53;100684.09;4990316;28;20047;-68
2022/09/24 04:26:06;;;;;;;16.27;7.13;;;;;;;12.32;50.66;100685.63;4991895;28;20174;-68
2022/09/24 04:28:32;;;;;;;11.55;6.90;;;;;;;12.21;50.69;100690.50;4994039;28;20049;-67
2022/09/24 04:30:59;;;;;;;15.00;9.23;;;;;;;12.25;50.53;100687.31;4994050;28;20046;-67
2022/09/24 04:33:25;;;;;;;22.23;12.55;;;;;;;12.13;50.86;100686.81;4993887;28;20100;-67
2022/09/24 04:35:52;;;;;;;14.43;7.65;;;;;;;12.17;50.68;100690.00;4993474;28;20046;-68
2022/09/24 04:38:20;;;;;;;12.35;7.10;;;;;;;12.13;50.71;100694.06;4993486;28;20057;-68
2022/09/24 04:40:47;;;;;;;14.52;6.60;;;;;;;12.13;50.56;100691.38;4993015;28;20509;-67
2022/09/24 04:43:13;;;;;;;10.38;6.55;;;;;;;12.24;50.45;100682.09;4992616;28;20046;-67
2022/09/24 04:45:45;;;;;;;9.10;6.35;;;;;;;12.31;50.40;100686.59;4982949;28;20141;-68
2022/09/24 04:48:11;;;;;;;;;;;;;;;12.31;50.39;100693.84;4993540;28;20055;-68
2022/09/24 04:50:38;;;;;;;10.80;6.78;;;;;;;12.34;50.38;100688.13;4992764;28;19921;-68
2022/09/24 04:53:11;;;;;;;11.30;7.07;;;;;;;12.12;50.80;100692.38;4993367;28;20062;-67
2022/09/24 04:55:38;;;;;;;12.43;7.22;;;;;;;12.09;50.77;100696.25;4983144;28;20057;-67
2022/09/24 04:58:04;;;;;;;16.20;7.20;;;;;;;11.82;51.26;100694.75;4991727;28;20051;-68
2022/09/24 05:00:32;;;;;;;12.40;7.38;;;;;;;11.97;51.08;100688.69;4992186;28;20137;-68
2022/09/24 05:03:02;;;;;;;12.55;7.32;;;;;;;11.91;51.17;100688.38;4992905;28;20053;-68
2022/09/24 05:05:31;;;;;;;9.43;6.72;;;;;;;11.97;50.99;100686.00;4994053;28;20046;-70
2022/09/24 05:07:58;;;;;;;11.70;7.05;;;;;;;12.01;50.86;100687.38;4993359;28;20053;-65
2022/09/24 05:10:25;;;;;;;15.02;7.72;;;;;;;11.96;50.96;100689.72;4993586;28;20054;-66
2022/09/24 05:12:51;;;;;;;13.00;6.68;;;;;;;11.88;51.22;100679.81;4993141;28;20433;-67
2022/09/24 05:15:18;;;;;;;11.98;7.10;;;;;;;12.05;51.06;100688.69;4992406;28;20474;-67
2022/09/24 05:17:45;;;;;;;10.07;7.00;;;;;;;12.15;50.97;100686.66;4990127;28;20069;-67
2022/09/24 05:20:12;;;;;;;15.35;8.65;;;;;;;12.15;50.81;100694.75;4993317;28;20133;-66
2022/09/24 05:22:45;;;;;;;10.63;6.93;;;;;;;12.19;50.75;100693.38;4992387;28;20046;-69
2022/09/24 05:25:13;;;;;;;13.20;6.88;;;;;;;12.20;50.82;100688.84;4992870;28;20042;-69
2022/09/24 05:27:44;;;;;;;12.27;6.63;;;;;;;12.23;50.71;100696.56;4993321;28;20049;-69
2022/09/24 05:30:11;;;;;;;9.73;6.90;;;;;;;12.22;50.59;100693.03;4993378;28;20049;-69
2022/09/24 05:32:38;;;;;;;10.50;6.70;;;;;;;12.20;50.67;100692.34;4993382;28;20133;-68
2022/09/24 05:35:07;;;;;;;14.73;6.40;;;;;;;12.23;50.48;100689.31;4993349;28;20046;-69
2022/09/24 05:37:35;;;;;;;10.25;6.53;;;;;;;12.27;50.26;100682.59;4992374;28;20049;-68
2022/09/24 05:42:49;;;;;;;11.45;6.88;;;;;;;12.31;50.31;100683.91;4992099;28;20054;-69
2022/09/24 05:45:17;;;;;;;11.02;6.78;;;;;;;12.23;50.37;100692.03;4991652;28;20065;-69
2022/09/24 05:47:44;;;;;;;12.00;6.65;;;;;;;12.13;50.70;100688.69;4992592;28;20046;-69
2022/09/24 05:50:14;;;;;;;14.73;6.80;;;;;;;12.13;50.68;100686.00;4993338;28;20054;-70
2022/09/24 05:52:41;;;;;;;22.08;7.85;;;;;;;12.16;50.35;100688.34;4992647;28;20050;-69
2022/09/24 05:55:09;;;;;;;13.20;7.25;;;;;;;12.36;50.09;100692.31;4991701;28;20524;-69
2022/09/24 05:57:35;;;;;;;9.90;6.70;;;;;;;12.34;50.07;100690.81;4992119;28;20046;-69
2022/09/24 06:00:04;;;;;;;23.05;6.93;;;;;;;12.43;49.94;100688.94;4992430;28;20050;-69
2022/09/24 06:02:30;;;;;;;12.82;7.18;;;;;;;12.59;49.50;100703.19;4991636;28;20406;-69
2022/09/24 06:04:57;;;;;;;12.38;7.35;;;;;;;12.47;49.78;100698.34;4991458;28;20269;-69
2022/09/24 06:07:23;;;;;;;14.23;7.13;;;;;;;12.35;49.77;100706.78;4991614;28;20050;-69
2022/09/24 06:09:50;;;;;;;19.52;7.57;;;;;;;12.24;50.34;100704.44;4992285;28;20046;-69
2022/09/24 06:12:16;;;;;;;16.50;7.15;;;;;;;12.49;49.64;100709.78;4991288;28;20055;-69
2022/09/24 06:14:43;;;;;;;13.82;7.35;;;;;;;12.48;49.46;100710.78;4991729;28;20046;-69
2022/09/24 06:17:09;;;;;;;14.77;6.70;;;;;;;12.46;49.77;100702.91;4991672;28;20494;-69
2022/09/24 06:19:36;;;;;;;16.00;7.18;;;;;;;12.62;49.35;100704.66;4991589;28;20050;-69
2022/09/24 06:22:02;;;;;;;13.38;6.72;;;;;;;12.67;49.23;100713.09;4991666;28;20046;-69
2022/09/24 06:24:29;;;;;;;11.30;7.32;;;;;;;12.70;49.49;100715.44;4991971;28;20046;-68
2022/09/24 06:26:57;;;;;;;13.48;7.32;;;;;;;12.74;49.23;100705.16;4983017;28;20046;-69
2022/09/24 06:29:23;;;;;;;12.30;6.88;;;;;;;12.67;49.41;100710.38;4973943;28;20047;-69
2022/09/24 06:31:52;;;;;;;15.38;7.85;;;;;;;12.65;49.29;100704.31;4991248;28;20047;-69
2022/09/24 06:34:18;;;;;;;12.30;7.57;;;;;;;12.54;49.64;100708.25;4991963;28;20053;-69
2022/09/24 06:36:45;;;;;;;14.88;6.78;;;;;;;12.78;49.11;100701.97;4981872;28;20045;-69
2022/09/24 06:39:11;;;;;;;14.05;6.82;;;;;;;12.81;49.24;100698.09;4991383;28;20051;-70
2022/09/24 06:41:38;;;;;;;11.80;6.95;;;;;;;12.74;49.20;100700.63;4991628;28;20061;-70
2022/09/24 06:44:04;;;;;;;10.40;6.80;;;;;;;13.00;48.67;100699.50;4991772;28;20046;-68
2022/09/24 06:46:31;;;;;;;18.45;6.88;;;;;;;13.13;48.29;100694.38;4991825;28;20050;-68
2022/09/24 06:48:57;;;;;;;9.98;6.85;;;;;;;13.08;48.34;100699.47;4991639;28;20054;-61
2022/09/24 06:51:24;;;;;;;9.23;6.45;;;;;;;13.33;47.67;100706.38;4993908;28;20046;-62
2022/09/24 06:53:51;;;;;;;10.07;6.47;;;;;;;13.40;47.68;100706.50;4993180;28;20046;-63
2022/09/24 06:56:18;;;;;;;9.48;6.50;;;;;;;13.35;47.47;100698.09;4993785;28;20057;-62
2022/09/24 06:58:45;;;;;;;11.70;6.82;;;;;;;13.02;48.38;100706.38;4992871;28;20085;-61
2022/09/24 07:01:11;;;;;;;10.75;6.85;;;;;;;13.07;48.35;100703.97;4991984;28;20066;-61
2022/09/24 07:03:39;;;;;;;11.15;7.25;;;;;;;12.91;48.85;100705.94;4992871;28;20093;-62
2022/09/24 07:06:06;;;;;;;13.02;7.15;;;;;;;12.83;49.13;100717.56;4993636;28;20410;-62
2022/09/24 07:08:33;;;;;;;13.93;7.18;;;;;;;12.33;50.50;100718.72;4992000;28;20050;-63
2022/09/24 07:11:01;;;;;;;13.77;6.78;;;;;;;13.00;49.01;100718.34;4992913;28;20498;-61
2022/09/24 07:13:27;;;;;;;11.48;7.03;;;;;;;13.24;48.77;100717.38;4988510;28;20145;-61
2022/09/24 07:15:54;;;;;;;11.38;7.32;;;;;;;13.32;48.72;100709.25;4993053;28;20393;-61
2022/09/24 07:18:20;;;;;;;14.00;7.00;;;;;;;13.29;48.65;100721.22;4991367;28;20050;-62
2022/09/24 07:20:55;;;;;;;14.57;8.90;;;;;;;13.15;49.13;100719.28;4992662;28;20046;-61
2022/09/24 07:23:22;;;;;;;17.00;9.82;;;;;;;13.40;48.43;100721.81;4990736;28;20399;-69
2022/09/24 07:25:50;;;;;;;16.05;10.55;;;;;;;13.52;48.05;100721.22;4990418;28;20046;-68
2022/09/24 07:28:17;;;;;;;12.40;8.23;;;;;;;13.41;48.16;100723.50;4991012;28;20058;-70
2022/09/24 07:30:44;;;;;;;11.02;6.85;;;;;;;13.21;48.83;100726.63;4990623;28;20046;-71
2022/09/24 07:33:10;;;;;;;13.35;7.15;;;;;;;13.40;48.21;100724.50;4992044;28;20046;-70
2022/09/24 07:35:38;;;;;;;12.30;7.07;;;;;;;12.96;49.29;100730.47;4991629;28;20042;-70
2022/09/24 07:38:13;;;;;;;10.38;7.07;;;;;;;13.33;48.38;100727.09;4981529;28;20042;-70
2022/09/24 07:40:39;;;;;;;10.30;6.88;;;;;;;13.01;49.03;100728.13;4990339;28;20073;-71
2022/09/24 07:43:11;;;;;;;15.90;8.00;;;;;;;13.06;49.01;100725.72;4990491;28;20057;-70
2022/09/24 07:45:37;;;;;;;10.68;6.90;;;;;;;13.08;49.05;100731.78;4990646;28;20458;-71
2022/09/24 07:48:04;;;;;;;12.88;7.60;;;;;;;13.35;48.45;100725.91;4989629;28;20430;-70
2022/09/24 07:50:32;;;;;;;20.13;8.43;;;;;;;13.16;49.02;100725.50;4990109;28;20054;-70
2022/09/24 07:52:59;;;;;;;12.98;7.38;;;;;;;13.50;48.10;100733.22;4973852;28;20394;-70
2022/09/24 07:55:26;;;;;;;11.05;7.15;;;;;;;13.70;47.86;100733.53;4990886;28;20046;-70
2022/09/24 07:57:54;;;;;;;11.32;6.85;;;;;;;13.56;47.98;100732.47;4990057;28;20046;-70
2022/09/24 08:00:22;;;;;;;13.38;7.05;;;;;;;13.72;47.62;100743.13;4974278;28;20375;-70
2022/09/24 08:02:49;;;;;;;9.80;6.72;;;;;;;13.96;47.31;100738.59;4973374;28;20062;-70
2022/09/24 08:05:16;;;;;;;11.93;6.47;;;;;;;13.90;47.23;100733.94;4974168;28;20051;-70
2022/09/24 08:07:51;;;;;;;14.70;7.88;;;;;;;13.85;47.42;100730.94;4974071;28;20134;-70
2022/09/24 08:10:18;;;;;;;15.57;7.65;;;;;;;13.86;47.22;100738.00;4975688;28;20067;-71
2022/09/24 08:12:44;;;;;;;14.23;7.38;;;;;;;14.07;46.89;100740.84;4993578;28;20062;-71
2022/09/24 08:15:11;;;;;;;15.35;7.30;;;;;;;14.28;46.49;100738.28;4977531;28;20054;-70
2022/09/24 08:17:37;;;;;;;13.63;7.28;;;;;;;14.21;46.67;100739.19;4973983;28;20225;-70
2022/09/24 08:20:04;;;;;;;11.13;6.50;;;;;;;14.04;46.93;100735.81;4974274;28;20050;-70
2022/09/24 08:22:32;;;;;;;11.43;7.10;;;;;;;13.23;48.53;100732.69;4973659;28;20054;-70
2022/09/24 08:24:59;;;;;;;11.48;7.05;;;;;;;13.44;47.94;100731.22;4975059;28;20054;-70
2022/09/24 08:27:26;;;;;;;11.30;7.15;;;;;;;13.71;47.69;100735.25;4974322;28;20050;-70
2022/09/24 08:29:53;;;;;;;14.35;7.50;;;;;;;14.10;46.58;100735.09;4974707;28;20054;-70
2022/09/24 08:32:19;;;;;;;12.23;7.35;;;;;;;14.41;45.70;100731.41;4974133;28;20054;-71
2022/09/24 08:34:46;;;;;;;13.23;7.40;;;;;;;14.73;45.27;100741.88;4973826;28;20058;-70
2022/09/24 08:37:12;;;;;;;10.38;6.40;;;;;;;14.90;45.15;100736.28;4974253;28;20053;-71
2022/09/24 08:39:39;;;;;;;11.25;7.05;;;;;;;15.10;44.76;100739.22;4974710;28;20047;-71
2022/09/24 08:42:28;;;;;;;14.35;7.18;;;;;;;15.34;44.31;100736.19;4975290;28;20394;-72
2022/09/24 08:47:59;;;;;;;12.50;6.30;;;;;;;15.47;43.79;100738.19;4959752;28;20409;-68
2022/09/24 08:50:29;;;;;;;11.32;6.72;;;;;;;15.42;44.08;100736.03;4973636;28;20046;-69
2022/09/24 08:53:05;;;;;;;12.00;6.95;;;;;;;15.63;43.37;100740.66;4973877;28;20047;-69
2022/09/24 08:55:34;;;;;;;15.55;7.88;;;;;;;15.53;43.28;100737.41;4974579;28;20051;-68
2022/09/24 08:58:18;;;;;;;9.45;7.10;;;;;;;15.48;43.59;100745.25;4974407;28;20054;-68
2022/09/24 09:01:03;;;;;;;17.42;7.95;;;;;;;14.96;44.75;100747.16;4974689;28;20050;-69
2022/09/24 09:03:36;;;;;;;15.23;6.82;;;;;;;15.27;44.33;100742.53;4970510;28;20050;-69
2022/09/24 09:06:08;;;;;;;12.00;6.97;;;;;;;15.18;44.46;100737.22;4974807;28;20076;-69
2022/09/24 09:08:56;;;;;;;14.82;7.05;;;;;;;15.45;43.82;100740.25;4973922;28;20051;-68
2022/09/24 09:11:42;;;;;;;11.18;6.70;;;;;;;15.69;43.46;100741.75;4986702;28;20101;-68
2022/09/24 09:14:24;;;;;;;12.45;6.88;;;;;;;15.91;42.87;100742.56;4993614;28;20529;-69
2022/09/24 09:17:05;;;;;;;8.57;5.90;;;;;;;16.25;42.31;100749.09;4993745;28;20046;-67
2022/09/24 09:19:33;;;;;;;14.90;7.60;;;;;;;16.34;42.20;100745.22;4993647;28;20117;-68
2022/09/24 09:22:13;;;;;;;13.30;6.82;;;;;;;16.40;41.72;100742.56;4994222;28;20444;-69
2022/09/24 09:24:43;;;;;;;11.35;6.57;;;;;;;16.14;42.11;100743.19;4993084;28;20512;-69
2022/09/24 09:27:13;;;;;;;13.82;7.15;;;;;;;16.09;42.35;100736.69;4993324;28;20066;-67
2022/09/24 09:29:43;;;;;;;9.90;7.00;;;;;;;15.94;42.39;100742.19;4993673;28;20043;-68
2022/09/24 09:32:39;;;;;;;17.02;6.88;;;;;;;16.21;42.37;100735.13;4993672;28;20047;-68
2022/09/24 09:35:18;;;;;;;9.35;6.32;;;;;;;15.91;42.79;100731.75;4993519;28;20046;-68
2022/09/24 09:38:18;;;;;;;13.82;6.57;;;;;;;15.97;42.88;100732.84;4993420;28;20126;-69
2022/09/24 09:40:56;;;;;;;11.20;6.15;;;;;;;16.12;42.54;100739.84;4990897;28;20049;-69
2022/09/24 09:43:24;;;;;;;13.80;6.18;;;;;;;16.27;42.23;100731.63;4991927;28;20048;-68
2022/09/24 09:46:12;;;;;;;9.10;6.15;;;;;;;16.32;42.64;100733.75;4982720;28;20054;-69
2022/09/24 09:48:53;;;;;;;10.82;6.70;;;;;;;16.04;42.97;100734.56;4990983;28;20049;-69
2022/09/24 09:51:24;;;;;;;10.55;6.40;;;;;;;15.85;42.57;100733.38;4990892;28;20417;-68
2022/09/24 09:53:59;;;;;;;13.63;7.03;;;;;;;15.84;43.09;100723.56;4990484;28;20046;-67
2022/09/24 09:56:33;;;;;;;12.70;6.47;;;;;;;16.08;42.80;100730.44;4991729;28;20058;-68
2022/09/24 09:59:11;;;;;;;10.85;6.18;;;;;;;16.26;42.62;100732.66;4973930;28;20049;-68
2022/09/24 10:01:40;;;;;;;12.57;6.53;;;;;;;16.53;41.79;100736.41;4981756;28;20102;-66
2022/09/24 10:04:45;;;;;;;11.48;6.28;;;;;;;16.57;41.77;100726.00;4979392;28;20121;-67
2022/09/24 10:07:17;;;;;;;12.25;6.30;;;;;;;16.26;42.47;100726.41;4971667;28;20078;-67
2022/09/24 10:09:45;;;;;;;10.43;5.80;;;;;;;16.47;41.68;100731.78;4973326;28;20047;-69
2022/09/24 10:12:16;;;;;;;10.75;6.03;;;;;;;16.39;42.22;100734.63;4973406;28;20051;-67
2022/09/24 10:14:43;;;;;;;11.07;6.00;;;;;;;16.36;41.98;100726.88;4973117;28;20053;-69
2022/09/24 10:17:15;;;;;;;6.93;5.38;;;;;;;16.33;41.79;100728.16;4973294;28;20134;-61
2022/09/24 10:19:44;;;;;;;;;;;;;;;16.30;41.79;100733.13;4974102;28;20081;-61
2022/09/24 10:22:20;;;;;;;10.68;5.78;;;;;;;16.22;41.90;100730.53;4973047;28;19922;-63
2022/09/24 10:24:48;;;;;;;8.48;5.78;;;;;;;16.21;41.84;100728.88;4973766;28;20075;-61
2022/09/24 10:27:36;;;;;;;15.10;6.03;;;;;;;15.86;42.22;100718.81;4964823;28;20061;-62
2022/09/24 10:32:59;;;;;;;10.45;5.22;;;;;;;16.13;41.60;100727.16;4973756;28;20046;-62
2022/09/24 10:35:34;;;;;;;15.27;5.32;;;;;;;16.07;42.25;100733.34;4972802;28;20058;-62
2022/09/24 10:38:14;;;;;;;8.80;5.20;;;;;;;16.30;41.48;100735.81;4971361;28;20110;-72
2022/09/24 10:40:40;;;;;;;12.13;6.35;;;;;;;16.21;41.73;100723.47;4972606;28;20050;-72
2022/09/24 10:43:16;;;;;;;16.05;5.80;;;;;;;16.22;42.07;100725.13;4972866;28;20392;-73
2022/09/24 10:45:54;;;;;;;9.15;5.40;;;;;;;16.62;41.03;100724.38;4972243;28;20073;-71
2022/09/24 10:48:33;;;;;;;12.75;6.63;;;;;;;16.46;41.57;100731.94;4972496;28;20166;-71
2022/09/24 10:51:22;;;;;;;10.40;6.30;;;;;;;16.65;40.74;100736.69;4972442;28;20057;-72
2022/09/24 10:54:16;;;;;;;17.75;8.00;;;;;;;16.28;41.10;100743.28;4971493;28;20043;-72
2022/09/24 10:56:48;;;;;;;11.85;5.63;;;;;;;15.62;42.19;100738.97;4971859;28;20418;-72
2022/09/24 10:59:50;;;;;;;7.97;6.13;;;;;;;16.82;40.11;100738.03;4972531;28;20055;-72
2022/09/24 11:02:43;;;;;;;7.82;5.22;;;;;;;15.78;42.35;100743.31;4974884;28;20460;-73
2022/09/24 11:05:21;;;;;;;9.40;5.63;;;;;;;15.73;43.17;100739.50;4991034;28;20038;-72
2022/09/24 11:07:53;;;;;;;11.15;5.40;;;;;;;16.04;41.90;100731.88;4991485;28;20050;-72
2022/09/24 11:10:30;;;;;;;9.75;6.45;;;;;;;16.39;41.76;100738.16;4991296;28;20051;-71
2022/09/24 11:13:19;;;;;;;8.82;5.10;;;;;;;16.94;41.56;100732.88;4990407;28;20042;-73
2022/09/24 11:15:55;;;;;;;8.77;5.43;;;;;;;16.97;41.92;100737.06;4990627;28;20424;-72
2022/09/24 11:18:27;;;;;;;16.77;9.18;;;;;;;17.45;41.13;100728.91;4990622;28;20077;-71
2022/09/24 11:21:02;;;;;;;12.43;5.32;;;;;;;17.67;40.68;100727.66;4990205;28;20052;-71
2022/09/24 11:23:48;;;;;;;9.82;5.72;;;;;;;17.78;40.09;100726.22;4990968;28;20112;-71
2022/09/24 11:26:45;;;;;;;10.15;5.13;;;;;;;17.67;40.31;100719.53;4990854;28;20057;-71
2022/09/24 11:29:33;;;;;;;14.80;6.38;;;;;;;18.32;39.50;100714.31;4991014;28;20058;-73
2022/09/24 11:32:30;;;;;;;12.02;5.13;;;;;;;18.15;39.60;100711.22;4990908;28;20053;-73
2022/09/24 11:35:28;;;;;;;7.75;5.15;;;;;;;18.04;38.94;100719.97;4991023;28;20057;-72
2022/09/24 11:38:00;;;;;;;10.40;5.32;;;;;;;17.64;39.54;100724.53;4988847;28;20042;-72
2022/09/24 11:40:33;;;;;;;9.07;5.38;;;;;;;17.74;39.11;100722.25;4993535;28;20047;-71
2022/09/24 11:43:17;;;;;;;9.15;4.68;;;;;;;18.21;38.40;100715.81;4994772;28;20129;-72
2022/09/24 11:45:43;;;;;;;9.55;4.85;;;;;;;17.97;39.57;100714.53;4994262;28;20402;-71
2022/09/24 11:48:23;;;;;;;13.75;5.40;;;;;;;18.36;38.80;100712.84;4994163;28;20057;-72
2022/09/24 11:50:58;;;;;;;8.05;5.00;;;;;;;17.26;40.62;100722.34;4994223;28;20482;-72
2022/09/24 11:53:27;;;;;;;9.40;5.28;;;;;;;17.04;41.28;100714.34;4993103;28;20057;-72
2022/09/24 11:56:00;;;;;;;6.80;5.22;;;;;;;17.09;41.97;100714.59;4995125;28;20046;-71
2022/09/24 11:58:35;;;;;;;6.10;4.80;;;;;;;16.87;42.51;100713.88;4993992;28;20510;-70
2022/09/24 12:01:11;;;;;;;10.63;6.00;;;;;;;17.11;42.95;100719.81;4993005;28;20058;-71
2022/09/24 12:04:02;;;;;;;13.23;5.50;;;;;;;17.50;42.69;100715.53;4993788;28;20046;-71
2022/09/24 12:06:34;;;;;;;8.90;6.00;;;;;;;16.95;43.64;100720.16;4993693;28;20089;-72
2022/09/24 12:09:26;;;;;;;8.40;6.10;;;;;;;16.65;43.54;100715.03;4993993;28;20061;-72
2022/09/24 12:11:57;;;;;;;7.32;5.82;;;;;;;16.94;42.49;100716.59;4993398;28;20042;-72
2022/09/24 12:14:28;;;;;;;13.63;6.00;;;;;;;16.93;42.53;100712.22;4992692;28;20545;-71
2022/09/24 12:17:02;;;;;;;8.30;5.30;;;;;;;16.87;42.42;100723.88;4993479;28;20119;-72
2022/09/24 12:19:50;;;;;;;11.95;5.13;;;;;;;17.47;41.48;100715.94;4993405;28;20061;-71
2022/09/24 12:22:19;;;;;;;8.10;5.75;;;;;;;17.68;41.24;100720.34;4991555;28;20047;-69
2022/09/24 12:24:53;;;;;;;9.30;5.45;;;;;;;17.59;40.78;100714.31;4993470;28;20053;-65
2022/09/24 12:27:37;;;;;;;8.13;4.85;;;;;;;17.78;40.50;100709.94;4992090;28;20058;-67
2022/09/24 12:33:44;;;;;;;10.60;5.65;;;;;;;17.83;40.65;100713.69;4992025;28;20100;-64
2022/09/24 12:36:31;;;;;;;10.27;5.10;;;;;;;17.91;40.70;100704.50;4993272;28;20096;-65
2022/09/24 12:39:05;;;;;;;8.20;5.40;;;;;;;17.77;40.64;100705.56;4984366;28;20046;-65
2022/09/24 12:41:34;;;;;;;11.63;8.10;;;;;;;17.89;41.00;100703.03;4992666;28;20504;-68
2022/09/24 12:44:09;;;;;;;10.90;6.53;;;;;;;17.99;40.85;100701.56;4994006;28;20046;-69
2022/09/24 12:46:39;;;;;;;8.82;5.75;;;;;;;17.51;41.75;100712.66;4991595;28;20042;-69
2022/09/24 12:49:24;;;;;;;7.60;5.50;;;;;;;17.85;40.81;100706.16;4993100;28;20046;-69
2022/09/24 12:51:56;;;;;;;8.40;5.63;;;;;;;17.71;41.31;100709.09;4991660;28;20556;-69
2022/09/24 12:54:27;;;;;;;7.25;4.70;;;;;;;18.04;40.67;100714.53;4991987;28;20057;-70
2022/09/24 12:57:07;;;;;;;7.32;5.72;;;;;;;18.09;40.29;100710.13;4992738;28;20053;-68
2022/09/24 12:59:33;;;;;;;11.82;6.05;;;;;;;18.13;40.58;100705.13;4993491;28;21405;-69
2022/09/24 13:02:14;;;;;;;9.30;5.97;;;;;;;18.08;39.95;100705.75;4992795;28;20047;-69
2022/09/24 13:05:01;;;;;;;11.18;7.70;;;;;;;18.24;40.04;100709.13;4994489;28;20053;-69
2022/09/24 13:07:39;;;;;;;11.80;5.93;;;;;;;17.84;40.42;100707.22;4992606;28;20042;-68
2022/09/24 13:10:16;;;;;;;8.75;6.03;;;;;;;18.01;40.10;100704.09;4994128;28;20490;-69
2022/09/24 13:12:44;;;;;;;8.98;5.18;;;;;;;18.15;39.97;100694.94;4992026;28;20517;-69
2022/09/24 13:15:26;;;;;;;8.95;5.60;;;;;;;17.99;39.38;100700.75;4991662;28;20050;-69
2022/09/24 13:18:12;;;;;;;9.38;5.72;;;;;;;17.88;39.69;100698.66;4992418;28;20046;-69
2022/09/24 13:20:41;;;;;;;11.18;6.05;;;;;;;18.17;39.33;100695.56;4991675;28;20043;-69
2022/09/24 13:23:18;;;;;;;10.27;5.95;;;;;;;18.07;39.64;100697.84;4976276;28;20057;-68
2022/09/24 13:25:56;;;;;;;7.90;5.90;;;;;;;18.50;38.62;100698.19;4991356;28;20133;-68
2022/09/24 13:28:28;;;;;;;10.90;5.72;;;;;;;17.90;39.61;100696.59;4991954;28;20050;-68
2022/09/24 13:31:18;;;;;;;8.55;5.95;;;;;;;17.56;40.38;100695.75;4993641;28;20054;-69
2022/09/24 13:33:49;;;;;;;9.73;5.83;;;;;;;17.99;39.82;100684.47;4991724;28;20042;-67
2022/09/24 13:36:22;;;;;;;9.30;5.70;;;;;;;18.07;39.77;100693.22;4992758;28;20053;-67
2022/09/24 13:38:56;;;;;;;7.88;5.35;;;;;;;17.90;40.22;100683.03;4991782;28;20053;-68
2022/09/24 13:42:00;;;;;;;11.75;5.38;;;;;;;17.97;39.69;100686.56;4991735;28;20054;-69
2022/09/24 13:45:01;;;;;;;8.07;5.18;;;;;;;18.13;39.41;100685.28;4991090;28;20042;-68
2022/09/24 13:47:50;;;;;;;7.80;5.22;;;;;;;17.95;39.36;100689.47;4990763;28;20076;-67
2022/09/24 13:50:23;;;;;;;6.88;4.70;;;;;;;18.18;39.05;100685.53;4989849;28;20049;-69
2022/09/24 13:53:22;;;;;;;6.88;5.32;;;;;;;18.34;38.42;100687.78;4981878;28;20050;-69
2022/09/24 13:55:53;;;;;;;10.88;4.85;;;;;;;18.37;38.41;100681.91;4990387;28;20046;-68
2022/09/24 13:58:33;;;;;;;8.47;5.50;;;;;;;18.25;38.38;100687.19;4983308;28;20552;-68
2022/09/24 14:01:28;;;;;;;8.00;6.00;;;;;;;18.14;38.74;100681.53;4990802;28;20298;-68
2022/09/24 14:04:05;;;;;;;10.70;5.00;;;;;;;18.40;38.57;100680.66;4991253;28;20049;-68
2022/09/24 14:06:39;;;;;;;9.88;5.70;;;;;;;17.78;39.09;100677.38;4991323;28;20517;-68
2022/09/24 14:09:14;;;;;;;9.35;5.30;;;;;;;17.91;38.62;100687.41;4991492;28;20050;-68
2022/09/24 14:11:49;;;;;;;10.38;5.32;;;;;;;18.17;38.53;100679.28;4992838;28;20046;-62
2022/09/24 14:14:18;;;;;;;9.43;6.40;;;;;;;18.06;38.67;100683.44;4993105;28;20053;-62
2022/09/24 14:16:45;;;;;;;10.35;6.65;;;;;;;18.18;38.94;100685.53;4992569;28;20050;-62
2022/09/24 14:19:14;;;;;;;9.73;5.70;;;;;;;18.14;39.10;100678.81;4992794;28;20050;-61
2022/09/24 14:21:53;;;;;;;9.65;6.10;;;;;;;18.02;39.60;100674.00;4992391;28;20050;-69
2022/09/24 14:25:04;;;;;;;9.52;5.97;;;;;;;17.82;39.76;100678.63;4991557;28;20042;-68
2022/09/24 14:27:35;;;;;;;8.35;5.97;;;;;;;17.38;40.57;100679.25;4992035;28;20057;-69
2022/09/24 14:30:06;;;;;;;12.55;6.05;;;;;;;16.94;40.25;100678.66;4991894;28;20421;-69
2022/09/24 14:32:39;;;;;;;9.00;5.10;;;;;;;17.41;39.32;100682.38;4991079;28;20470;-61
2022/09/24 14:35:17;;;;;;;9.32;5.57;;;;;;;17.35;40.35;100669.63;4991973;28;20948;-61
2022/09/24 14:37:51;;;;;;;9.55;5.88;;;;;;;16.91;41.58;100684.50;4989487;28;20053;-61
2022/09/24 14:40:21;;;;;;;8.65;5.30;;;;;;;16.74;41.98;100675.03;4991969;28;20050;-61
2022/09/24 14:42:54;;;;;;;10.80;6.10;;;;;;;17.16;41.25;100675.81;4991639;28;20042;-63
2022/09/24 14:45:36;;;;;;;9.27;5.47;;;;;;;17.59;39.84;100684.47;4992439;28;20571;-71
2022/09/24 14:48:05;;;;;;;9.25;5.35;;;;;;;17.62;39.80;100688.66;4991904;28;20056;-71
2022/09/24 14:50:37;;;;;;;9.35;4.95;;;;;;;17.51;39.73;100687.38;4990831;28;20056;-71
2022/09/24 14:53:22;;;;;;;10.60;5.40;;;;;;;;;;4991938;28;20045;-72
2022/09/24 14:55:49;;;;;;;12.82;5.45;;;;;;;17.42;40.05;100684.03;4991688;28;20066;-71
2022/09/24 14:58:28;;;;;;;11.55;5.03;;;;;;;17.59;39.55;100684.47;4991580;28;20046;-71
2022/09/24 15:01:00;;;;;;;9.88;5.68;;;;;;;17.27;39.92;100676.06;4988321;28;20046;-70
2022/09/24 15:03:52;;;;;;;7.78;5.57;;;;;;;16.94;40.87;100688.69;4990864;28;20058;-70